Latest Weather Observations for Liawenee

IDT60801

Issued at 7:31 pm EST Thursday 28 May 2015 (issued every 30 minutes, with the page automatically refreshed every 10 minutes)

About weather observations | Map of weather stations | Latest weather observations for TAS | Other Formats
Station Details ID: 096033 Name: LIAWENEE Lat: -41.90 Lon: 146.67 Height: 1057.0 m
Data from the previous 72 hours. | See also: Recent months at Liawenee
Date/Time
EST
Temp
°C
App
Temp
°C
Dew
Point
Rel
Hum
%
Delta-T
°C
Wind Press
QNH
hPa
Press
MSL
hPa
Rain
since 9 am
mm
Dir
 
Spd
km/h
Gust
km/h
Spd
kts
Gust
kts
28/07:30pm 2.3 -3.8 0.7 89 0.7 WNW 22 32 12 17 1006.0 1006.9 10.2
28/07:00pm 2.4 -4.0 1.1 91 0.5 WNW 24 33 13 18 1006.1 1007.0 10.2
28/06:30pm 3.3 -3.7 2.1 92 0.5 WNW 28 44 15 24 1006.2 1007.1 10.2
28/06:00pm 3.9 -0.8 2.9 93 0.4 NW 17 32 9 17 1005.5 1006.4 10.2
28/05:30pm 3.9 -2.2 2.9 93 0.4 NW 24 37 13 20 1005.5 1006.4 10.2
28/05:00pm 3.0 -1.9 2.0 93 0.4 NW 17 30 9 16 1005.3 1006.2 10.2
28/04:30pm 3.4 -3.5 2.4 93 0.4 WNW 28 46 15 25 1005.5 1006.4 8.0
28/04:00pm 5.6 -1.2 3.3 85 1.0 NW 28 52 15 28 1005.3 1006.2 4.4
28/03:30pm 6.3 -1.1 3.8 84 1.1 NW 32 50 17 27 1004.8 1005.6 4.4
28/03:00pm 6.3 -1.7 3.8 84 1.1 NW 35 61 19 33 1004.5 1005.4 4.4
28/02:34pm 6.0 -0.6 4.3 89 0.8 NW 28 50 15 27 1005.0 1005.8 4.4
28/02:30pm 6.0 -0.2 4.3 89 0.8 NW 26 48 14 26 1005.1 1006.0 4.4
28/02:04pm 6.6 0.0 4.1 84 1.1 WNW 28 48 15 26 1005.5 1006.4 4.4
28/02:00pm 6.7 0.4 4.0 83 1.2 NW 26 46 14 25 1005.5 1006.4 4.4
28/01:45pm 6.9 0.3 4.2 83 1.2 NW 28 50 15 27 1006.0 1006.9 4.4
28/01:30pm 6.6 0.5 4.6 87 0.9 NW 26 46 14 25 1006.3 1007.2 4.4
28/01:00pm 6.6 -0.8 4.9 89 0.8 WNW 33 52 18 28 1006.5 1007.4 4.4
28/12:30pm 6.7 -0.1 5.3 91 0.7 NNW 30 52 16 28 1006.8 1007.7 3.0
28/12:29pm 6.7 0.3 5.3 91 0.7 NNW 28 46 15 25 1006.7 1007.5 2.8
28/12:00pm 6.5 0.9 5.3 92 0.6 NNW 24 37 13 20 1007.0 1007.9 1.6
28/11:31am 7.7 1.4 5.8 88 0.9 NW 28 46 15 25 1007.7 1008.6 1.2
28/11:30am 7.7 1.0 5.7 87 1.0 NW 30 46 16 25 1007.7 1008.6 1.2
28/11:00am 6.6 0.1 4.9 89 0.8 NW 28 54 15 29 1008.5 1009.5 1.2
28/10:30am 5.5 -2.6 3.5 87 0.9 NW 35 57 19 31 1009.2 1010.2 1.0
28/10:06am 6.1 -0.4 4.7 91 0.6 NW 28 48 15 26 1009.6 1010.6 0.4
28/10:00am 6.1 0.0 4.7 91 0.6 NW 26 48 14 26 1009.5 1010.5 0.2
28/09:34am 6.0 -0.6 4.3 89 0.8 NW 28 52 15 28 1009.5 1010.5 0.0
28/09:30am 6.0 0.2 4.5 90 0.7 NNW 24 46 13 25 1009.6 1010.6 0.0
28/09:00am 5.8 -0.1 4.0 88 0.8 NW 24 41 13 22 1009.9 1010.8 1.8
28/08:30am 6.0 -0.7 3.5 84 1.1 NW 28 50 15 27 1010.1 1011.1 1.8
28/08:09am 5.8 -0.9 3.5 85 1.0 NW 28 48 15 26 1010.3 1011.3 1.8
28/08:00am 5.3 -1.1 3.3 87 0.9 NW 26 43 14 23 1010.2 1011.2 1.8
28/07:30am 5.5 -0.8 3.5 87 0.9 NW 26 41 14 22 1010.0 1011.0 1.8
28/07:00am 5.7 -0.1 4.2 90 0.7 WNW 24 39 13 21 1010.2 1011.2 1.8
28/06:30am 5.7 0.2 4.2 90 0.7 NW 22 41 12 22 1010.1 1011.1 1.8
28/06:00am 5.5 -0.8 4.0 90 0.7 NW 26 43 14 23 1010.0 1011.0 1.6
28/05:46am 5.3 -1.3 4.0 91 0.6 NW 28 46 15 25 1010.1 1011.1 1.6
28/05:30am 5.1 -0.5 3.6 90 0.7 NW 22 41 12 22 1010.2 1011.2 1.6
28/05:00am 4.9 -1.5 3.1 88 0.8 NW 26 44 14 24 1010.5 1011.5 1.6
28/04:49am 5.1 -1.7 3.1 87 0.9 NW 28 48 15 26 1010.6 1011.6 1.6
28/04:30am 5.3 -0.3 3.5 88 0.8 NW 22 35 12 19 1010.9 1011.9 1.6
28/04:00am 5.2 -0.8 3.5 89 0.8 WNW 24 39 13 21 1011.1 1012.1 1.6
28/03:30am 5.5 -0.4 3.8 89 0.8 NW 24 39 13 21 1011.0 1012.0 1.6
28/03:00am 5.8 0.0 4.3 90 0.7 NW 24 44 13 24 1011.4 1012.4 1.6
28/02:30am 6.5 1.8 5.3 92 0.6 NW 19 28 10 15 1011.8 1012.8 1.6
28/02:00am 6.4 2.9 5.4 93 0.5 NW 13 22 7 12 1011.8 1012.8 1.2
28/01:30am 6.6 1.7 5.2 91 0.7 NNW 20 41 11 22 1011.8 1012.8 1.0
28/01:00am 6.0 0.7 4.8 92 0.6 NW 22 37 12 20 1012.1 1013.1 1.0
28/12:30am 5.9 0.1 4.2 89 0.8 NW 24 43 13 23 1012.1 1013.1 1.0
28/12:02am 6.0 -1.6 3.8 86 1.0 WNW 33 52 18 28 1012.2 1013.2 1.0
28/12:00am 6.1 -1.9 3.9 86 1.0 WNW 35 52 19 28 1012.2 1013.2 1.0
 
Date/Time
EST
Temp
°C
App
Temp
°C
Dew
Point
Rel
Hum
%
Delta-T
°C
Wind Press
QNH
hPa
Press
MSL
hPa
Rain
since 9 am
mm
Dir
 
Spd
km/h
Gust
km/h
Spd
kts
Gust
kts
27/11:37pm 6.0 -1.4 4.2 88 0.8 WNW 32 50 17 27 1012.5 1013.6 1.0
27/11:30pm 6.2 -1.1 4.5 89 0.8 WNW 32 44 17 24 1012.5 1013.6 1.0
27/11:00pm 6.5 -0.3 5.1 91 0.7 WNW 30 46 16 25 1013.0 1014.0 1.0
27/10:48pm 7.1 0.8 5.7 91 0.7 NW 28 57 15 31 1013.1 1014.1 1.0
27/10:30pm 7.4 2.9 6.3 93 0.5 NNW 19 35 10 19 1012.7 1013.8 0.8
27/10:00pm 7.2 2.5 6.0 92 0.6 NNW 20 37 11 20 1012.7 1013.8 0.8
27/09:30pm 7.0 1.9 6.1 94 0.4 NNW 22 37 12 20 1013.0 1014.0 0.8
27/09:00pm 6.8 1.7 5.9 94 0.4 NNW 22 43 12 23 1013.2 1014.3 0.8
27/08:30pm 7.0 1.4 5.6 91 0.7 NNW 24 44 13 24 1013.6 1014.7 0.8
27/08:00pm 7.0 1.4 5.3 89 0.8 NNW 24 50 13 27 1013.6 1014.7 0.8
27/07:30pm 7.0 1.8 5.3 89 0.8 NNW 22 43 12 23 1013.6 1014.7 0.8
27/07:00pm 7.0 1.8 5.5 90 0.7 NNW 22 35 12 19 1013.7 1014.8 0.8
27/06:30pm 6.9 2.6 5.4 90 0.7 NNW 17 28 9 15 1013.6 1014.7 0.8
27/06:00pm 6.9 2.7 5.5 91 0.7 NNW 17 32 9 17 1013.9 1014.9 0.8
27/05:30pm 6.7 2.8 5.5 92 0.6 NNW 15 28 8 15 1014.2 1015.3 0.8
27/05:00pm 6.8 2.2 5.4 91 0.7 NW 19 32 10 17 1014.0 1015.0 0.8
27/04:30pm 6.8 3.0 5.6 92 0.6 NW 15 26 8 14 1014.1 1015.2 0.8
27/04:00pm 6.9 2.7 5.5 91 0.7 NW 17 35 9 19 1014.2 1015.3 0.8
27/03:30pm 7.0 2.4 5.6 91 0.7 NNW 19 28 10 15 1014.3 1015.4 0.8
27/03:00pm 7.3 2.7 5.8 90 0.7 NNW 19 33 10 18 1014.2 1015.3 0.8
27/02:30pm 7.4 3.6 5.9 90 0.7 NNW 15 32 8 17 1014.3 1015.4 0.8
27/02:00pm 7.1 2.6 6.0 93 0.5 NNW 19 28 10 15 1014.3 1015.4 0.8
27/01:30pm 6.9 2.4 6.0 94 0.4 NW 19 30 10 16 1014.6 1015.7 0.8
27/01:00pm 6.8 2.6 5.7 93 0.5 NNW 17 26 9 14 1015.2 1016.3 0.6
27/12:30pm 6.8 3.0 5.6 92 0.6 NNW 15 26 8 14 1015.4 1016.5 0.6
27/12:00pm 6.7 1.9 5.7 93 0.5 NNW 20 35 11 19 1016.0 1017.1 0.6
27/11:30am 6.4 1.6 5.5 94 0.4 NNW 20 35 11 19 1016.2 1017.3 0.6
27/11:00am 6.8 2.2 5.4 91 0.7 N 19 32 10 17 1016.7 1017.9 0.6
27/10:30am 6.2 2.0 5.5 95 0.3 N 17 28 9 15 1017.1 1018.2 0.4
27/10:00am 5.8 1.5 5.2 96 0.3 N 17 28 9 15 1017.1 1018.2 0.2
27/09:30am 5.7 0.8 5.1 96 0.3 N 20 41 11 22 1017.3 1018.5 0.0
27/09:00am 5.6 -0.2 4.6 93 0.5 N 24 48 13 26 1017.1 1018.2 0.0
27/08:30am 5.4 0.6 4.5 94 0.4 N 19 35 10 19 1017.6 1018.8 0.0
27/08:00am 5.2 0.8 4.8 97 0.2 N 17 32 9 17 1017.6 1018.8 0.0
27/07:30am 4.7 1.0 4.3 97 0.2 N 13 20 7 11 1018.0 1019.1 0.0
27/07:00am 4.7 -0.3 3.8 94 0.4 N 19 30 10 16 1017.8 1019.0 0.0
27/06:30am 4.7 -0.5 3.4 91 0.6 N 20 39 11 21 1018.1 1019.3 0.0
27/06:00am 4.6 -0.1 2.9 89 0.7 N 17 33 9 18 1018.2 1019.4 0.0
27/05:30am 4.6 0.5 2.5 86 0.9 N 13 20 7 11 1018.3 1019.5 0.0
27/05:00am 4.8 0.7 2.2 83 1.1 N 13 32 7 17 1018.7 1019.9 0.0
27/04:30am 4.7 0.7 2.7 87 0.9 N 13 22 7 12 1019.1 1020.3 0.0
27/04:00am 4.9 1.3 3.2 89 0.7 N 11 24 6 13 1019.3 1020.5 0.0
27/03:30am 4.8 1.2 3.0 88 0.8 NNE 11 17 6 9 1019.7 1021.0 0.0
27/03:00am 4.8 1.6 3.0 88 0.8 NNE 9 15 5 8 1020.3 1021.5 0.0
27/02:30am 4.9 0.2 2.9 87 0.9 N 17 28 9 15 1020.5 1021.8 0.0
27/02:00am 4.6 -0.2 2.6 87 0.9 NNW 17 30 9 16 1020.5 1021.8 0.0
27/01:30am 4.5 1.3 2.8 89 0.7 N 9 19 5 10 1020.8 1022.1 0.0
27/01:00am 4.6 0.3 3.3 91 0.6 N 15 24 8 13 1021.1 1022.3 0.0
27/12:30am 2.3 -0.7 1.7 96 0.2 S 7 11 4 6 1021.4 1022.7 0.0
27/12:00am 2.7 -1.1 1.8 94 0.4 E 11 13 6 7 1021.5 1022.8 0.0
 
Date/Time
EST
Temp
°C
App
Temp
°C
Dew
Point
Rel
Hum
%
Delta-T
°C
Wind Press
QNH
hPa
Press
MSL
hPa
Rain
since 9 am
mm
Dir
 
Spd
km/h
Gust
km/h
Spd
kts
Gust
kts
26/11:30pm 3.2 -0.6 1.7 90 0.6 ENE 11 17 6 9 1021.7 1023.0 0.0
26/11:00pm 4.8 -0.6 2.7 86 0.9 NNE 20 32 11 17 1021.8 1023.1 0.0
26/10:30pm 4.2 0.9 2.7 90 0.6 N 9 15 5 8 1022.5 1023.8 0.0
26/10:00pm 4.6 1.3 2.5 86 0.9 N 9 13 5 7 1023.1 1024.4 0.0
26/09:30pm 4.0 0.7 2.5 90 0.6 N 9 11 5 6 1023.3 1024.6 0.0
26/09:00pm 3.1 1.4 1.6 90 0.6 CALM 0 4 0 2 1023.3 1024.6 0.0
26/08:30pm 3.3 0.4 1.7 89 0.7 NNE 6 7 3 4 1023.5 1024.8 0.0
26/08:00pm 2.4 0.6 0.9 90 0.6 CALM 0 0 0 0 1023.6 1024.9 0.0
26/07:30pm 2.3 0.1 1.0 91 0.5 WSW 2 6 1 3 1023.8 1025.2 0.0
26/07:00pm 3.0 1.3 1.7 91 0.5 CALM 0 0 0 0 1024.1 1025.4 0.0
26/06:30pm 2.4 0.5 0.6 88 0.7 CALM 0 0 0 0 1024.1 1025.4 0.0
26/06:00pm 2.9 -0.1 1.0 87 0.8 ENE 6 7 3 4 1024.1 1025.4 0.0
26/05:30pm 3.7 0.8 1.4 85 1.0 WNW 6 7 3 4 1024.2 1025.5 0.0
26/05:00pm 3.8 0.8 1.0 82 1.2 W 6 9 3 5 1023.9 1025.3 0.0
26/04:30pm 5.5 2.6 1.2 74 1.8 S 6 7 3 4 1024.1 1025.4 0.0
26/04:00pm 7.4 3.3 2.3 70 2.2 SSW 13 17 7 9 1024.1 1025.4 0.0
26/03:30pm 8.5 4.1 2.7 67 2.6 SSW 15 19 8 10 1024.3 1025.6 0.0
26/03:00pm 9.3 5.3 2.6 63 3.0 SW 13 17 7 9 1024.3 1025.6 0.0
26/02:30pm 9.4 5.7 2.3 61 3.2 SW 11 19 6 10 1024.3 1025.6 0.0
26/02:00pm 9.6 5.6 2.9 63 3.0 WSW 13 17 7 9 1024.4 1025.7 0.0
26/01:30pm 9.2 5.2 3.0 65 2.8 SW 13 19 7 10 1024.7 1026.1 0.0
26/01:00pm 9.0 4.7 3.2 67 2.6 SSW 15 20 8 11 1024.8 1026.2 0.0
26/12:30pm 8.8 4.2 3.6 70 2.4 SSW 17 22 9 12 1025.3 1026.6 0.0
26/12:00pm 8.9 3.9 3.5 69 2.5 SW 19 26 10 14 1025.5 1026.9 0.0
26/11:30am 7.6 2.3 3.1 73 2.0 SW 20 30 11 16 1026.0 1027.4 0.0
26/11:00am 8.3 3.7 3.9 74 2.0 WSW 17 26 9 14 1026.3 1027.7 0.0
26/10:30am 7.6 2.0 3.6 76 1.8 SW 22 30 12 16 1026.3 1027.7 0.0
26/10:00am 7.4 2.4 3.5 76 1.8 WSW 19 26 10 14 1026.4 1027.8 0.0
26/09:30am 6.9 2.3 3.7 80 1.5 WSW 17 22 9 12 1026.3 1027.7 0.0
26/09:00am 5.7 1.8 3.4 85 1.0 WSW 13 17 7 9 1026.5 1027.9 0.0
26/08:30am 4.3 1.1 3.1 92 0.5 SE 9 13 5 7 1026.5 1027.9 0.0
26/08:00am 2.9 -2.0 1.9 93 0.4 W 17 20 9 11 1026.2 1027.5 0.0
26/07:30am 1.5 -1.8 0.3 92 0.5 SSW 7 13 4 7 1026.3 1027.7 0.0
26/07:00am 2.8 -2.1 1.8 93 0.4 WSW 17 26 9 14 1025.8 1027.2 0.0
26/06:30am 2.3 -3.6 1.9 97 0.2 W 22 28 12 15 1025.6 1027.0 0.0
26/06:00am 2.0 -3.1 1.0 93 0.4 WSW 17 20 9 11 1025.9 1027.3 0.0
26/05:30am 1.6 -2.4 0.4 92 0.5 SW 11 19 6 10 1025.8 1027.2 0.0
26/05:00am 2.5 -2.4 1.9 96 0.2 W 17 20 9 11 1025.5 1026.9 0.0
26/04:30am 2.1 -2.2 1.1 93 0.4 SW 13 19 7 10 1025.6 1027.0 0.0
26/04:00am 3.7 -1.1 2.5 92 0.5 WSW 17 28 9 15 1025.4 1026.8 0.0
26/03:30am 3.4 -2.1 1.9 90 0.6 W 20 24 11 13 1025.5 1026.9 0.0
26/03:00am 3.9 -1.9 2.4 90 0.6 W 22 28 12 15 1025.4 1026.8 0.0
26/02:30am 4.1 -0.3 2.5 89 0.7 W 15 20 8 11 1025.8 1027.2 0.0
26/02:00am 4.0 -0.1 2.2 88 0.8 W 13 19 7 10 1025.8 1027.2 0.0
26/01:30am 3.8 -0.7 2.2 89 0.7 WNW 15 22 8 12 1025.6 1027.0 0.0
26/01:00am 4.2 -0.6 2.6 89 0.7 W 17 22 9 12 1025.6 1027.0 0.0
26/12:30am 4.3 -0.5 2.8 90 0.7 W 17 24 9 13 1025.7 1027.1 0.0
26/12:00am 4.7 0.4 3.0 89 0.7 WNW 15 20 8 11 1025.9 1027.3 0.0
 
Date/Time
EST
Temp
°C
App
Temp
°C
Dew
Point
Rel
Hum
%
Delta-T
°C
Wind Press
QNH
hPa
Press
MSL
hPa
Rain
since 9 am
mm
Dir
 
Spd
km/h
Gust
km/h
Spd
kts
Gust
kts
25/11:30pm 5.1 0.0 3.3 88 0.8 WNW 19 26 10 14 1026.0 1027.4 0.0
25/11:00pm 4.8 0.4 2.8 87 0.9 WNW 15 20 8 11 1026.0 1027.4 0.0
25/10:30pm 4.2 0.1 2.1 86 0.9 WNW 13 19 7 10 1026.4 1027.8 0.0
25/10:00pm 4.3 0.7 2.7 89 0.7 WNW 11 22 6 12 1026.4 1027.8 0.0
25/09:30pm 3.4 0.0 1.8 89 0.7 WNW 9 17 5 9 1026.4 1027.8 0.0
25/09:00pm 3.4 -1.5 1.8 89 0.7 WNW 17 22 9 12 1026.5 1027.9 0.0
25/08:30pm 3.5 -0.5 2.8 95 0.3 WNW 13 22 7 12 1026.5 1027.9 0.0
25/08:00pm -0.3 -2.8 -1.0 95 0.2 SW 2 7 1 4 1026.5 1027.9 0.0

Other Formats:

Comma delimited format used in spreadsheet applications
http://www.bom.gov.au/fwo/IDT60801/IDT60801.95959.axf

JavaScript Object Notation format (JSON) in row-major order
http://www.bom.gov.au/fwo/IDT60801/IDT60801.95959.json